Time;durP1;ratioP1;P1;durP2;ratioP2;P2;SDS_P1;SDS_P2;PMS_P1;PMS_P2;Temp;Humidity;BMP_temperature;BMP_pressure;BME280_temperature;BME280_humidity;BME280_pressure;Samples;Min_cycle;Max_cycle;Signal;HPM_P1;HPM_P2
2022/01/18 00:01:17;;;;;;;;;;;;;;;7.17;84.90;103138.50;5132872;28;20039;-88
2022/01/18 00:04:00;;;;;;;0.45;0.45;;;;;;;6.88;84.94;103143.84;5174555;28;19924;-86
2022/01/18 00:06:52;;;;;;;0.40;0.40;;;;;;;6.94;85.39;103135.31;5155127;28;20042;-88
2022/01/18 00:09:38;;;;;;;1.95;0.95;;;;;;;6.89;85.68;103140.41;5137665;28;20322;-85
2022/01/18 00:13:12;;;;;;;0.50;0.50;;;;;;;6.71;85.41;103142.50;5179205;28;20126;-85
2022/01/18 00:16:10;;;;;;;3.45;1.83;;;;;;;6.73;85.68;103141.69;5159928;28;20058;-85
2022/01/18 00:18:51;;;;;;;0.60;0.60;;;;;;;6.77;85.66;103143.56;5150305;28;20027;-84
2022/01/18 00:23:59;;;;;;;2.28;1.90;;;;;;;6.81;85.65;103139.31;5151188;28;20046;-84
2022/01/18 00:36:02;;;;;;;4.80;2.13;;;;;;;6.90;85.41;103157.81;5148743;28;20106;-86
2022/01/18 00:41:47;;;;;;;1.63;1.52;;;;;;;6.87;85.67;103162.97;5138492;28;20043;-85
2022/01/18 00:44:25;;;;;;;0.80;0.80;;;;;;;6.95;85.31;103163.16;5151834;28;20073;-87
2022/01/18 00:47:15;;;;;;;;;;;;;;;;;;;;;
2022/01/18 00:52:53;;;;;;;0.52;0.52;;;;;;;6.90;85.82;103170.84;5113528;28;20035;-84
2022/01/18 00:55:36;;;;;;;1.37;1.33;;;;;;;6.95;85.61;103177.94;5134304;28;20621;-83
2022/01/18 00:58:41;;;;;;;0.95;0.95;;;;;;;6.97;85.24;103174.53;5089186;28;20038;-85
2022/01/18 01:46:01;;;;;;;1.73;1.20;;;;;;;6.78;86.09;103179.22;5202508;28;20040;-84
2022/01/18 02:01:47;;;;;;;8.95;3.15;;;;;;;6.74;85.52;103184.31;5174828;28;20414;-83
2022/01/18 02:04:18;;;;;;;1.15;1.15;;;;;;;6.74;85.89;103189.53;5140429;28;20038;-83
2022/01/18 02:06:48;;;;;;;1.60;1.58;;;;;;;6.83;85.67;103192.41;5164757;28;20095;-84
2022/01/18 02:22:32;;;;;;;0.95;0.95;;;;;;;6.90;85.41;103189.13;5176038;28;20022;-84
2022/01/18 02:28:42;;;;;;;1.58;1.55;;;;;;;6.71;86.36;103173.81;5157795;28;20081;-83
2022/01/18 02:35:24;;;;;;;0.70;0.70;;;;;;;6.72;85.90;103179.06;5176558;28;20037;-83
2022/01/18 02:46:22;;;;;;;2.28;1.85;;;;;;;6.77;85.45;103179.19;5190438;28;20046;-89
2022/01/18 02:49:11;;;;;;;0.70;0.70;;;;;;;6.86;85.26;103176.84;5201182;28;20079;-88
2022/01/18 02:51:44;;;;;;;26.20;2.92;;;;;;;6.83;85.57;103175.88;5198494;28;20033;-89
2022/01/18 02:54:19;;;;;;;3.30;2.03;;;;;;;6.87;85.62;103176.00;5189637;28;20087;-90
2022/01/18 02:56:56;;;;;;;1.58;1.20;;;;;;;6.91;85.16;103179.59;5165073;28;20048;-89
2022/01/18 02:59:43;;;;;;;0.93;0.93;;;;;;;6.87;85.70;103170.78;5200248;28;20116;-89
2022/01/18 03:05:32;;;;;;;3.50;1.65;;;;;;;6.86;85.92;103166.41;5220497;28;20067;-90
2022/01/18 03:08:03;;;;;;;0.40;0.40;;;;;;;6.68;86.07;103168.50;5189157;28;20490;-89
2022/01/18 03:10:41;;;;;;;2.05;1.95;;;;;;;6.79;85.57;103169.69;5227132;28;20034;-89
2022/01/18 03:13:20;;;;;;;0.40;0.40;;;;;;;6.86;85.52;103163.78;5205449;28;20025;-89
2022/01/18 03:15:57;;;;;;;2.92;1.98;;;;;;;6.70;85.97;103183.34;5207329;28;20512;-89
2022/01/18 03:21:38;;;;;;;1.42;1.40;;;;;;;6.78;85.46;103180.97;5212788;28;20075;-89
2022/01/18 03:24:32;;;;;;;1.65;1.23;;;;;;;6.77;85.92;103179.19;5189584;28;20063;-89
2022/01/18 03:28:10;;;;;;;0.45;0.45;;;;;;;6.63;85.96;103175.31;5200041;28;20059;-89
2022/01/18 03:30:11;;;;;;;1.60;1.15;;;;;;;6.70;86.21;103179.88;5213778;28;20135;-89
2022/01/18 03:32:41;;;;;;;2.33;2.15;;;;;;;6.54;86.93;103187.25;5230699;28;20056;-90
2022/01/18 03:35:12;;;;;;;1.40;1.40;;;;;;;6.79;86.04;103193.19;5203982;28;20453;-88
2022/01/18 03:37:42;;;;;;;4.05;1.63;;;;;;;6.74;85.93;103194.75;5174553;28;20402;-89
2022/01/18 03:40:13;;;;;;;12.38;5.13;;;;;;;6.75;85.89;103197.44;5225404;28;20043;-88
2022/01/18 03:42:49;;;;;;;1.45;1.40;;;;;;;6.66;85.87;103193.66;5174365;28;20044;-87
2022/01/18 03:45:32;;;;;;;1.75;1.48;;;;;;;6.63;86.47;103190.97;5204082;28;20093;-88
2022/01/18 03:48:14;;;;;;;;;;;;;;;;;;;;;
2022/01/18 03:51:17;;;;;;;0.88;0.88;;;;;;;6.64;86.85;103201.44;5174913;28;20127;-88
2022/01/18 03:54:29;;;;;;;0.40;0.40;;;;;;;6.47;87.24;103200.97;5225069;28;20102;-89
2022/01/18 03:57:52;;;;;;;3.10;2.53;;;;;;;6.64;86.60;103198.84;5183599;28;20191;-88
2022/01/18 04:00:54;;;;;;;0.40;0.40;;;;;;;6.45;86.73;103205.22;5202125;28;20044;-87
2022/01/18 04:03:25;;;;;;;0.82;0.82;;;;;;;6.58;86.47;103203.88;5227823;28;20028;-89
2022/01/18 04:05:56;;;;;;;1.13;1.13;;;;;;;6.71;85.96;103205.13;5211230;28;20108;-88
2022/01/18 04:08:27;;;;;;;3.40;1.95;;;;;;;6.53;86.71;103210.69;5212206;28;20303;-88
2022/01/18 04:11:18;;;;;;;2.92;1.88;;;;;;;6.38;86.71;103216.31;5212603;28;20089;-89
2022/01/18 04:14:02;;;;;;;1.90;1.75;;;;;;;6.45;86.95;103203.50;5209255;28;20036;-89
2022/01/18 04:17:10;;;;;;;1.20;1.20;;;;;;;6.50;87.00;103211.47;5179739;28;20640;-88
2022/01/18 04:31:59;;;;;;;1.05;1.05;;;;;;;6.73;85.67;103206.06;5210365;28;20047;-89
2022/01/18 04:35:01;;;;;;;1.55;1.35;;;;;;;6.60;86.15;103205.69;5227705;28;20139;-89
2022/01/18 04:37:49;;;;;;;0.52;0.52;;;;;;;6.72;85.70;103201.69;5193613;28;20054;-89
2022/01/18 04:40:41;;;;;;;0.77;0.77;;;;;;;6.79;85.42;103201.00;5222807;28;20338;-88
2022/01/18 04:50:05;;;;;;;1.60;1.50;;;;;;;6.60;85.65;103194.38;5211017;28;20108;-89
2022/01/18 04:52:56;;;;;;;1.05;1.05;;;;;;;6.49;86.20;103196.66;5200937;28;20048;-89
2022/01/18 04:55:36;;;;;;;3.30;1.88;;;;;;;6.61;86.14;103199.63;5223781;28;20203;-87
2022/01/18 04:58:09;;;;;;;1.27;1.20;;;;;;;6.68;85.29;103200.72;5255926;28;20048;-88
2022/01/18 05:00:46;;;;;;;;;;;;;;;6.69;85.63;103197.25;5226277;28;20020;-90
2022/01/18 05:03:43;;;;;;;4.47;1.60;;;;;;;6.65;86.08;103195.38;5222850;28;19920;-89
2022/01/18 05:06:30;;;;;;;1.75;1.17;;;;;;;6.66;85.90;103196.25;5197298;28;20401;-88
2022/01/18 05:09:07;;;;;;;2.50;2.33;;;;;;;6.73;85.51;103203.44;5200978;28;20061;-88
2022/01/18 05:12:01;;;;;;;0.82;0.82;;;;;;;6.67;85.70;103203.25;5202162;28;20146;-89
2022/01/18 05:14:34;;;;;;;7.72;2.05;;;;;;;6.72;85.67;103207.75;5245615;28;20116;-89
2022/01/18 05:20:43;;;;;;;0.77;0.77;;;;;;;6.87;85.28;103212.53;5194186;28;20045;-89
2022/01/18 05:23:33;;;;;;;2.40;2.20;;;;;;;6.76;85.32;103209.63;5217072;28;20512;-90
2022/01/18 05:26:08;;;;;;;0.80;0.80;;;;;;;6.86;85.01;103212.50;5206413;28;20101;-90
2022/01/18 05:28:42;;;;;;;1.38;1.00;;;;;;;6.80;84.80;103221.03;5212810;28;20035;-90
2022/01/18 05:31:14;;;;;;;0.70;0.70;;;;;;;6.88;84.91;103222.16;5183869;28;20053;-90
2022/01/18 05:33:57;;;;;;;0.40;0.40;;;;;;;6.88;85.07;103214.31;5197989;28;20612;-90
2022/01/18 05:36:37;;;;;;;0.98;0.98;;;;;;;6.90;84.87;103216.97;5224961;28;20521;-89
2022/01/18 05:39:31;;;;;;;1.48;1.38;;;;;;;6.78;85.28;103210.53;5231771;28;20044;-88
2022/01/18 05:42:05;;;;;;;0.73;0.73;;;;;;;6.72;85.69;103209.50;5213037;28;20269;-91
2022/01/18 05:44:39;;;;;;;1.52;1.42;;;;;;;6.77;85.44;103216.63;5214234;28;20047;-89
2022/01/18 05:47:29;;;;;;;1.05;1.05;;;;;;;6.74;85.51;103220.84;5213780;28;20037;-90
2022/01/18 05:50:01;;;;;;;1.13;1.13;;;;;;;6.75;85.24;103213.09;5211666;28;20050;-89
2022/01/18 05:52:32;;;;;;;1.27;0.68;;;;;;;6.78;85.31;103214.88;5214027;28;20037;-91
2022/01/18 05:55:08;;;;;;;1.88;1.20;;;;;;;6.79;85.10;103214.06;5210497;28;20094;-89
2022/01/18 05:57:39;;;;;;;5.10;3.00;;;;;;;6.83;84.71;103218.50;5215976;28;20070;-90
2022/01/18 06:00:19;;;;;;;0.63;0.63;;;;;;;6.85;84.81;103224.66;5222898;28;20029;-90
2022/01/18 06:03:11;;;;;;;12.70;1.48;;;;;;;6.90;84.53;103220.44;5225061;28;20071;-89
2022/01/18 06:08:42;;;;;;;1.27;1.27;;;;;;;6.80;84.17;103231.47;5225196;28;20032;-92
2022/01/18 06:11:25;;;;;;;1.63;1.52;;;;;;;6.64;84.77;103234.47;5205014;28;20046;-91
2022/01/18 06:13:59;;;;;;;0.90;0.90;;;;;;;6.85;84.59;103237.72;5211346;28;20040;-91
2022/01/18 06:16:55;;;;;;;3.00;1.98;;;;;;;6.67;84.38;103232.84;5207657;28;20096;-93
2022/01/18 06:23:14;;;;;;;2.70;2.50;;;;;;;6.54;85.41;103242.03;5205268;28;20075;-91
2022/01/18 06:26:14;;;;;;;1.23;1.23;;;;;;;6.56;85.54;103242.97;5186172;28;20507;-91
2022/01/18 06:29:17;;;;;;;0.40;0.40;;;;;;;6.57;85.54;103234.28;5234448;28;20039;-91
2022/01/18 06:32:00;;;;;;;0.90;0.90;;;;;;;6.61;84.95;103237.88;5197889;28;20437;-92
2022/01/18 06:34:31;;;;;;;1.90;1.80;;;;;;;6.71;84.89;103233.81;5206533;28;20055;-93
2022/01/18 06:40:49;;;;;;;3.88;1.73;;;;;;;6.66;84.71;103238.00;5162487;28;20112;-89
2022/01/18 06:43:23;;;;;;;0.50;0.50;;;;;;;6.64;85.18;103240.56;5152728;28;20198;-90
2022/01/18 06:46:00;;;;;;;5.43;2.15;;;;;;;6.56;84.80;103236.84;5207755;28;20017;-92
2022/01/18 06:48:37;;;;;;;1.10;1.10;;;;;;;6.59;85.44;103237.81;5218209;28;20100;-90
2022/01/18 06:51:37;;;;;;;6.53;3.25;;;;;;;6.58;84.93;103241.25;5192917;28;20033;-91
2022/01/18 06:54:31;;;;;;;1.55;1.50;;;;;;;6.68;84.88;103242.44;5215937;28;20024;-90
2022/01/18 06:57:09;;;;;;;1.40;1.30;;;;;;;6.73;85.00;103242.59;5231648;27;20032;-91
2022/01/18 06:59:43;;;;;;;0.60;0.60;;;;;;;6.75;84.62;103243.50;5231129;28;20505;-91
2022/01/18 07:02:13;;;;;;;0.95;0.95;;;;;;;6.68;84.56;103250.28;5208872;28;20093;-89
2022/01/18 07:04:44;;;;;;;0.77;0.77;;;;;;;6.72;84.42;103251.25;5226156;28;20059;-88
2022/01/18 07:07:18;;;;;;;0.50;0.50;;;;;;;6.61;84.97;103256.16;5210928;28;20621;-89
2022/01/18 07:09:48;;;;;;;3.55;3.15;;;;;;;6.74;84.79;103254.75;5230513;28;20071;-91
2022/01/18 07:12:19;;;;;;;2.35;1.33;;;;;;;6.73;84.46;103258.25;5213841;28;20458;-90
2022/01/18 07:14:52;;;;;;;0.80;0.80;;;;;;;6.77;84.81;103258.38;5209705;28;20031;-91
2022/01/18 07:17:22;;;;;;;1.25;1.10;;;;;;;6.80;84.10;103252.34;5223076;28;20442;-90
2022/01/18 07:19:53;;;;;;;0.95;0.95;;;;;;;6.77;84.54;103252.25;5210569;28;20166;-90
2022/01/18 07:22:23;;;;;;;0.50;0.50;;;;;;;6.75;84.38;103260.06;5212426;28;20028;-89
2022/01/18 07:24:57;;;;;;;1.35;1.25;;;;;;;6.81;84.29;103258.44;5201480;28;20026;-90
2022/01/18 07:27:28;;;;;;;0.50;0.50;;;;;;;6.81;83.86;103259.34;5207105;28;20163;-91
2022/01/18 07:30:01;;;;;;;2.03;1.80;;;;;;;6.82;84.69;103260.22;5211188;28;20073;-90
2022/01/18 07:32:31;;;;;;;6.07;3.10;;;;;;;6.81;84.43;103255.84;5211124;28;20032;-91
2022/01/18 07:35:03;;;;;;;0.77;0.77;;;;;;;6.82;84.70;103250.66;5208540;28;20039;-88
2022/01/18 07:37:33;;;;;;;3.05;2.63;;;;;;;6.84;84.49;103258.56;5226513;28;20516;-88
2022/01/18 07:40:05;;;;;;;4.57;4.15;;;;;;;6.77;84.13;103247.03;5224212;28;20032;-88
2022/01/18 07:42:35;;;;;;;10.73;2.53;;;;;;;6.87;84.19;103248.19;5211225;28;20104;-90
2022/01/18 07:45:06;;;;;;;3.13;2.75;;;;;;;6.84;84.48;103248.97;5209873;28;20131;-90
2022/01/18 07:53:15;;;;;;;;;;;;;;;;;;;;;
2022/01/18 08:02:02;;;;;;;1.10;1.10;;;;;;;6.81;84.55;103276.72;4908206;30;20576;-86
2022/01/18 08:32:32;;;;;;;;;;;;;;;;;;;;;
2022/01/18 08:35:26;;;;;;;1.20;1.20;;;;;;;6.86;84.14;103294.28;5159596;28;20034;-83
2022/01/18 08:37:56;;;;;;;2.22;2.10;;;;;;;6.81;84.48;103295.88;5211401;28;20044;-83
2022/01/18 08:40:27;;;;;;;0.77;0.77;;;;;;;6.86;84.58;103294.28;5234865;28;20117;-84
2022/01/18 08:42:57;;;;;;;1.75;1.65;;;;;;;6.89;84.36;103299.63;5192363;28;20040;-84
2022/01/18 08:45:28;;;;;;;1.50;1.40;;;;;;;6.91;84.37;103290.06;5201730;28;20096;-84
2022/01/18 08:47:58;;;;;;;2.10;1.98;;;;;;;6.87;84.58;103290.84;5256433;28;20279;-84
2022/01/18 08:50:31;;;;;;;1.23;1.15;;;;;;;6.85;84.64;103297.72;5253048;28;20452;-84
2022/01/18 08:53:01;;;;;;;3.38;2.60;;;;;;;6.92;85.07;103298.81;5244085;28;20033;-84
2022/01/18 08:55:34;;;;;;;1.52;1.42;;;;;;;6.98;84.37;103296.38;5237034;28;20043;-83
2022/01/18 08:58:04;;;;;;;0.90;0.90;;;;;;;6.90;84.83;103292.66;5222510;28;20066;-84
2022/01/18 09:00:35;;;;;;;2.20;1.27;;;;;;;6.87;84.98;103290.84;5250370;28;20055;-85
2022/01/18 09:03:15;;;;;;;6.97;6.15;;;;;;;6.84;85.10;103301.19;5215697;28;20033;-84
2022/01/18 09:05:46;;;;;;;2.60;2.38;;;;;;;6.92;84.84;103290.97;5213868;28;20090;-84
2022/01/18 09:08:18;;;;;;;2.40;1.83;;;;;;;6.77;84.96;103297.53;5192445;28;20493;-84
2022/01/18 09:10:49;;;;;;;0.85;0.85;;;;;;;6.85;85.30;103302.97;5214996;28;20116;-84
2022/01/18 09:13:22;;;;;;;1.92;1.63;;;;;;;6.91;84.91;103313.56;5222137;28;20308;-82
2022/01/18 09:15:52;;;;;;;2.60;1.50;;;;;;;6.87;84.70;103310.81;5209087;28;20678;-84
2022/01/18 09:18:23;;;;;;;0.77;0.77;;;;;;;6.97;85.02;103306.78;5209692;28;20032;-83
2022/01/18 09:20:54;;;;;;;1.55;1.50;;;;;;;7.03;84.80;103315.66;5211549;28;20587;-83
2022/01/18 09:23:26;;;;;;;8.30;2.80;;;;;;;7.03;84.56;103314.78;5234793;28;20032;-83
2022/01/18 09:25:59;;;;;;;0.73;0.73;;;;;;;7.03;84.83;103314.78;5230061;28;20561;-83
2022/01/18 09:28:30;;;;;;;1.85;1.75;;;;;;;7.00;84.98;103312.97;5237532;28;20081;-83
2022/01/18 09:31:00;;;;;;;2.67;1.23;;;;;;;7.07;84.97;103319.25;5216547;28;20040;-84
2022/01/18 09:33:40;;;;;;;10.10;2.88;;;;;;;7.11;85.03;103308.06;5226110;28;20033;-83
2022/01/18 09:36:26;;;;;;;1.27;1.20;;;;;;;7.13;84.64;103301.16;5206418;28;20061;-83
2022/01/18 09:49:35;;;;;;;4.47;2.63;;;;;;;7.21;85.04;103307.50;5194328;28;20045;-83
2022/01/18 09:52:18;;;;;;;0.77;0.77;;;;;;;7.30;85.00;103308.59;5176975;28;20050;-84
2022/01/18 09:54:48;;;;;;;0.85;0.85;;;;;;;7.36;84.43;103308.75;5189645;28;20033;-83
2022/01/18 10:11:37;;;;;;;0.50;0.50;;;;;;;7.18;85.24;103312.63;5464126;22;20052;-91
2022/01/18 10:14:53;;;;;;;;;;;;;;;;;;;;;
2022/01/18 10:20:24;;;;;;;1.60;1.50;;;;;;;7.54;85.05;103318.81;5281440;23;20062;-83
2022/01/18 10:22:54;;;;;;;0.43;0.43;;;;;;;7.42;84.40;103321.97;5188417;28;20026;-84
2022/01/18 10:25:27;;;;;;;1.42;1.33;;;;;;;7.45;84.79;103315.94;5169459;28;20033;-83
2022/01/18 10:27:58;;;;;;;0.75;0.75;;;;;;;7.33;84.85;103313.88;5183723;28;20041;-83
2022/01/18 10:34:24;;;;;;;1.77;1.67;;;;;;;7.38;84.98;103305.34;5198414;28;20030;-84
2022/01/18 10:37:09;;;;;;;14.10;2.70;;;;;;;7.33;84.96;103306.94;5153369;28;20037;-82
2022/01/18 10:39:47;;;;;;;3.50;1.92;;;;;;;7.35;85.04;103312.22;5159000;28;20026;-84
2022/01/18 10:53:20;;;;;;;0.60;0.60;;;;;;;7.67;84.92;103310.50;5189043;28;20054;-84
2022/01/18 10:56:11;;;;;;;0.50;0.50;;;;;;;7.71;84.56;103308.84;5150249;28;20061;-83
2022/01/18 10:58:54;;;;;;;1.20;0.93;;;;;;;7.85;84.15;103302.22;5140617;28;20135;-84
2022/01/18 11:01:25;;;;;;;1.10;1.10;;;;;;;7.91;84.04;103292.78;5133243;28;20054;-84
2022/01/18 11:04:13;;;;;;;6.78;2.63;;;;;;;7.96;84.25;103293.78;5171078;28;20038;-84
2022/01/18 11:06:57;;;;;;;0.55;0.55;;;;;;;7.93;84.42;103291.09;5157294;28;20041;-84
2022/01/18 11:14:01;;;;;;;0.40;0.40;;;;;;;7.97;84.47;103279.88;5176103;28;20030;-83
2022/01/18 11:16:40;;;;;;;1.08;1.08;;;;;;;7.97;84.02;103279.88;5166852;28;20049;-84
2022/01/18 11:21:54;;;;;;;1.52;1.42;;;;;;;8.00;83.83;103279.94;5184117;28;20031;-84
2022/01/18 11:24:25;;;;;;;7.25;2.15;;;;;;;8.07;83.80;103273.13;5169067;28;20343;-86
2022/01/18 11:26:57;;;;;;;1.60;1.50;;;;;;;8.10;82.88;103274.09;5171839;28;20046;-85
2022/01/18 11:29:29;;;;;;;1.55;1.45;;;;;;;8.08;83.94;103273.16;5143512;28;20094;-84
2022/01/18 11:32:52;;;;;;;2.05;1.95;;;;;;;8.04;84.32;103272.19;5192746;28;20053;-85
2022/01/18 11:36:12;;;;;;;0.70;0.70;;;;;;;8.07;84.09;103273.13;5155588;28;20376;-84
2022/01/18 11:49:59;;;;;;;1.08;1.08;;;;;;;8.28;81.95;103265.78;5216655;28;19921;-84
2022/01/18 11:52:39;;;;;;;1.02;1.02;;;;;;;8.37;82.87;103265.13;5174818;28;20036;-84
2022/01/18 11:55:38;;;;;;;0.90;0.90;;;;;;;8.39;81.98;103258.19;5178205;28;20040;-84
2022/01/18 11:58:12;;;;;;;0.47;0.47;;;;;;;8.52;83.29;103253.28;5184572;28;20090;-84
2022/01/18 12:04:54;;;;;;;2.72;2.15;;;;;;;8.37;80.74;103243.31;5218904;28;20089;-84
2022/01/18 12:07:34;;;;;;;1.27;1.15;;;;;;;8.33;81.03;103242.34;5189449;28;20058;-85
2022/01/18 12:10:08;;;;;;;1.38;1.00;;;;;;;8.44;82.48;103239.97;5186528;28;20034;-83
2022/01/18 12:12:39;;;;;;;3.13;2.15;;;;;;;8.52;82.30;103242.81;5135622;28;20046;-84
2022/01/18 12:15:15;;;;;;;4.28;1.48;;;;;;;8.58;80.05;103242.94;5204367;28;20129;-84
2022/01/18 12:20:46;;;;;;;0.70;0.70;;;;;;;8.61;81.79;103243.88;5387638;22;20057;-83
2022/01/18 12:23:31;;;;;;;4.75;1.55;;;;;;;8.63;81.36;103241.31;5166858;28;20045;-83
2022/01/18 12:39:50;;;;;;;0.80;0.80;;;;;;;8.75;81.10;103233.72;5198843;28;20061;-82
2022/01/18 12:48:07;;;;;;;1.55;1.45;;;;;;;8.72;81.64;103225.78;5264970;22;20062;-88
2022/01/18 12:52:10;;;;;;;;;;;;;;;;;;;;;
2022/01/18 12:55:48;;;;;;;0.80;0.80;;;;;;;8.77;81.00;103218.03;5062326;29;20093;-84
2022/01/18 12:58:35;;;;;;;2.13;1.63;;;;;;;8.72;81.34;103212.69;5073305;29;20047;-87
2022/01/18 13:02:11;;;;;;;0.70;0.70;;;;;;;8.73;81.78;103210.97;5042386;28;20099;-84
2022/01/18 13:05:00;;;;;;;;;;;;;;;8.78;81.34;103202.38;5114248;28;20038;-84
2022/01/18 13:08:33;;;;;;;;;;;;;;;;;;;;;
2022/01/18 13:37:42;;;;;;;1.35;1.35;;;;;;;8.77;79.57;103173.53;5145029;28;20054;-83
2022/01/18 13:40:17;;;;;;;0.95;0.95;;;;;;;8.57;77.35;103175.72;5130482;28;20037;-82
2022/01/18 13:46:55;;;;;;;6.50;2.65;;;;;;;8.60;80.00;103168.81;5160186;28;20069;-83
2022/01/18 13:49:26;;;;;;;8.68;1.50;;;;;;;8.53;79.91;103163.44;5135728;28;20038;-82
2022/01/18 13:52:09;;;;;;;2.83;1.50;;;;;;;8.45;79.92;103169.38;5130864;28;20049;-83
2022/01/18 13:54:50;;;;;;;1.08;1.08;;;;;;;8.55;79.63;103164.38;5159192;28;20034;-83
2022/01/18 13:57:22;;;;;;;1.30;1.20;;;;;;;8.45;79.56;103158.00;5155081;28;20034;-82
2022/01/18 13:59:52;;;;;;;3.25;1.58;;;;;;;8.59;81.42;103155.72;5115133;28;20022;-83
2022/01/18 14:02:24;;;;;;;1.00;0.98;;;;;;;8.54;80.59;103141.66;5138804;28;20040;-82
2022/01/18 14:05:20;;;;;;;0.93;0.93;;;;;;;8.61;80.73;103147.03;5130365;28;20053;-82
2022/01/18 14:12:03;;;;;;;;;;;;;;;8.61;80.10;103149.66;5167951;28;20533;-82
2022/01/18 14:14:34;;;;;;;1.48;1.38;;;;;;;8.64;80.66;103135.75;5158257;28;20294;-82
2022/01/18 14:17:11;;;;;;;1.48;1.00;;;;;;;8.64;81.05;103144.50;5149343;28;20042;-82
2022/01/18 14:20:19;;;;;;;0.47;0.45;;;;;;;8.59;79.02;103134.78;5169374;28;20041;-82
2022/01/18 14:23:20;;;;;;;0.63;0.63;;;;;;;8.61;80.86;103133.97;5111892;29;20143;-83
2022/01/18 14:26:13;;;;;;;1.50;1.25;;;;;;;8.59;81.00;103124.31;5115601;28;20042;-82
2022/01/18 14:29:04;;;;;;;1.08;0.95;;;;;;;8.66;81.13;103136.66;5141825;28;20032;-82
2022/01/18 14:31:34;;;;;;;1.35;1.27;;;;;;;8.69;80.84;103136.75;5143818;28;20042;-83
2022/01/18 14:34:05;;;;;;;1.35;1.25;;;;;;;8.70;80.81;103138.50;5155752;28;20025;-82
2022/01/18 14:36:48;;;;;;;1.20;1.20;;;;;;;8.70;81.09;103141.13;5140940;28;20047;-82
2022/01/18 14:39:22;;;;;;;3.08;2.88;;;;;;;8.88;80.40;103142.34;5227074;22;20050;-83
2022/01/18 14:42:05;;;;;;;1.80;1.70;;;;;;;8.74;81.14;103135.09;5190689;28;20044;-83
2022/01/18 14:44:57;;;;;;;;;;;;;;;;;;;;;
2022/01/18 14:47:27;;;;;;;0.45;0.45;;;;;;;8.82;79.89;103128.25;5155444;28;20068;-86
2022/01/18 14:50:19;;;;;;;2.92;1.58;;;;;;;8.88;80.56;103131.88;5183957;28;20037;-86
2022/01/18 14:53:21;;;;;;;0.50;0.50;;;;;;;8.83;79.94;103129.16;5149332;28;20188;-87
2022/01/18 14:56:20;;;;;;;18.17;1.92;;;;;;;8.80;80.53;103135.19;5138554;28;20041;-85
2022/01/18 14:58:54;;;;;;;3.13;2.05;;;;;;;8.92;80.70;103125.81;5167189;28;20034;-84
2022/01/18 15:01:26;;;;;;;0.73;0.70;;;;;;;8.83;80.84;103121.31;5163539;28;20152;-85
2022/01/18 15:04:00;;;;;;;0.80;0.70;;;;;;;8.90;80.21;103115.31;5150913;28;20081;-86
2022/01/18 15:06:48;;;;;;;1.52;1.42;;;;;;;8.82;80.71;103109.94;5145390;28;20038;-83
2022/01/18 15:09:28;;;;;;;0.57;0.57;;;;;;;8.93;80.89;103110.13;5167512;28;20653;-83
2022/01/18 15:12:00;;;;;;;2.65;0.98;;;;;;;8.85;80.54;103108.22;5170205;28;20041;-83
2022/01/18 15:14:45;;;;;;;1.52;1.42;;;;;;;8.87;80.75;103109.16;5169359;28;20042;-85
2022/01/18 15:17:25;;;;;;;1.23;1.15;;;;;;;8.84;81.00;103102.13;5150619;28;20057;-84
2022/01/18 15:19:58;;;;;;;2.65;2.20;;;;;;;8.80;80.51;103097.69;5153224;28;20041;-83
2022/01/18 15:22:30;;;;;;;1.00;1.00;;;;;;;8.77;80.50;103098.50;5170457;28;20030;-85
2022/01/18 15:25:01;;;;;;;0.60;0.60;;;;;;;8.84;80.77;103098.63;5160587;28;20444;-83
2022/01/18 15:27:31;;;;;;;5.00;2.15;;;;;;;8.89;80.58;103092.59;5167377;28;20026;-84
2022/01/18 15:30:10;;;;;;;0.85;0.82;;;;;;;8.93;80.39;103086.56;5167152;28;20034;-83
2022/01/18 15:33:11;;;;;;;1.15;1.15;;;;;;;8.91;80.07;103079.53;5144837;28;20042;-82
2022/01/18 15:35:53;;;;;;;0.77;0.77;;;;;;;8.86;80.30;103070.72;5165664;28;20073;-81
2022/01/18 15:38:27;;;;;;;2.45;1.83;;;;;;;8.84;80.25;103075.06;5155475;28;20100;-83
2022/01/18 15:41:00;;;;;;;0.88;0.88;;;;;;;8.82;80.41;103081.13;5170214;28;20701;-82
2022/01/18 15:43:33;;;;;;;3.65;2.90;;;;;;;8.85;80.09;103087.28;5171807;28;20110;-83
2022/01/18 15:46:05;;;;;;;1.52;1.42;;;;;;;8.76;80.24;103081.03;5166027;28;20062;-83
2022/01/18 15:48:43;;;;;;;1.95;1.85;;;;;;;8.77;80.00;103077.56;5168493;28;20073;-81
2022/01/18 15:51:14;;;;;;;1.23;1.23;;;;;;;8.75;80.11;103079.25;5165401;28;20067;-81
2022/01/18 15:53:45;;;;;;;0.75;0.75;;;;;;;8.70;80.16;103070.47;5169040;28;20401;-80
2022/01/18 15:56:19;;;;;;;1.38;1.10;;;;;;;8.63;79.76;103069.44;5149292;28;20045;-81
2022/01/18 15:58:54;;;;;;;1.33;1.33;;;;;;;8.63;79.93;103073.81;5156407;28;20048;-82
2022/01/18 16:01:25;;;;;;;0.73;0.73;;;;;;;8.58;80.09;103072.81;5185900;28;20038;-84
2022/01/18 16:03:56;;;;;;;1.45;1.35;;;;;;;8.54;80.07;103071.91;5170832;28;20041;-83
2022/01/18 16:06:26;;;;;;;1.00;1.00;;;;;;;8.54;79.73;103074.50;5151214;28;20046;-82
2022/01/18 16:08:58;;;;;;;0.63;0.60;;;;;;;8.50;79.72;103078.81;5170473;28;20056;-83
2022/01/18 16:11:30;;;;;;;1.00;1.00;;;;;;;8.48;79.70;103070.03;5140872;28;20065;-86
2022/01/18 16:14:13;;;;;;;2.80;2.58;;;;;;;8.39;79.56;103076.78;5175611;28;20036;-86
2022/01/18 16:16:45;;;;;;;4.85;2.15;;;;;;;8.43;79.52;103076.03;5184376;28;20734;-83
2022/01/18 16:19:19;;;;;;;1.98;1.88;;;;;;;8.38;78.93;103072.41;5167942;28;20026;-85
2022/01/18 16:21:50;;;;;;;1.98;1.75;;;;;;;8.37;79.25;103076.78;5171947;28;20044;-85
2022/01/18 16:24:24;;;;;;;2.17;2.08;;;;;;;8.34;79.09;103069.75;5153782;28;20109;-84
2022/01/18 16:26:58;;;;;;;1.42;1.33;;;;;;;8.31;78.68;103066.16;5148194;28;20069;-84
2022/01/18 16:29:28;;;;;;;0.93;0.88;;;;;;;8.23;79.08;103058.19;5183529;28;20113;-84
2022/01/18 16:32:05;;;;;;;2.88;2.33;;;;;;;8.19;78.96;103061.56;5150660;28;20604;-83
2022/01/18 16:34:38;;;;;;;2.50;1.38;;;;;;;8.11;79.11;103066.66;5182404;28;20045;-82
2022/01/18 16:37:26;;;;;;;1.58;1.48;;;;;;;8.11;78.97;103061.44;5180860;28;20046;-83
2022/01/18 16:40:13;;;;;;;6.05;3.08;;;;;;;8.11;78.77;103068.38;5174111;28;20057;-82
2022/01/18 16:42:55;;;;;;;0.90;0.90;;;;;;;8.06;78.65;103070.88;5155896;28;20038;-81
2022/01/18 16:45:37;;;;;;;1.50;1.48;;;;;;;7.97;78.70;103073.34;5172879;28;20088;-82
2022/01/18 16:48:10;;;;;;;1.42;1.42;;;;;;;7.94;78.91;103065.41;5186386;28;20098;-82
2022/01/18 16:50:41;;;;;;;1.50;1.40;;;;;;;7.97;78.41;103066.38;5172562;28;20046;-81
2022/01/18 16:53:14;;;;;;;1.58;1.48;;;;;;;7.96;78.36;103071.56;5164552;28;20049;-81
2022/01/18 16:55:49;;;;;;;3.28;2.63;;;;;;;7.94;78.18;103062.81;5147667;28;20131;-83
2022/01/18 16:58:20;;;;;;;2.35;1.75;;;;;;;7.91;78.18;103070.56;5170490;28;20018;-81
2022/01/18 17:00:51;;;;;;;1.00;1.00;;;;;;;7.86;78.61;103073.06;5186673;28;20041;-81
2022/01/18 17:03:21;;;;;;;1.67;1.58;;;;;;;7.84;78.45;103069.56;5158340;28;20018;-80
2022/01/18 17:05:52;;;;;;;4.38;1.70;;;;;;;7.82;78.74;103066.91;5166737;28;20397;-80
2022/01/18 17:08:22;;;;;;;1.55;1.52;;;;;;;7.80;78.08;103063.41;5174320;28;20014;-79
2022/01/18 17:10:53;;;;;;;2.05;1.13;;;;;;;7.78;78.58;103070.31;5157838;28;20014;-79
2022/01/18 17:13:23;;;;;;;2.25;2.05;;;;;;;7.74;78.97;103073.69;5164831;28;20030;-80
2022/01/18 17:15:54;;;;;;;0.88;0.88;;;;;;;7.70;78.83;103077.09;5163469;28;20038;-80
2022/01/18 17:18:25;;;;;;;2.80;2.28;;;;;;;7.71;78.65;103065.81;5181839;28;20038;-82
2022/01/18 17:20:55;;;;;;;2.20;2.08;;;;;;;7.67;78.83;103063.94;5188147;28;20592;-81
2022/01/18 17:23:28;;;;;;;6.78;4.15;;;;;;;7.70;78.19;103064.91;5172124;28;20532;-83
2022/01/18 17:25:59;;;;;;;0.50;0.50;;;;;;;7.66;78.59;103064.78;5144931;28;20034;-85
2022/01/18 17:28:30;;;;;;;0.80;0.80;;;;;;;7.67;78.20;103063.94;5170695;28;20033;-84
2022/01/18 17:31:06;;;;;;;1.45;1.35;;;;;;;7.61;78.67;103055.97;5140351;28;20045;-84
2022/01/18 17:33:46;;;;;;;1.20;1.20;;;;;;;7.59;79.27;103053.34;5168919;28;20106;-84
2022/01/18 17:36:22;;;;;;;4.10;2.10;;;;;;;7.61;78.94;103051.63;5168440;28;20033;-84
2022/01/18 17:38:58;;;;;;;11.32;1.55;;;;;;;7.63;78.36;103049.94;5188746;28;20030;-83
2022/01/18 17:41:31;;;;;;;3.17;2.88;;;;;;;7.60;78.27;103048.97;5168214;28;20457;-83
2022/01/18 17:44:03;;;;;;;0.65;0.65;;;;;;;7.58;78.81;103054.19;5168178;28;20409;-83
2022/01/18 17:46:37;;;;;;;3.50;1.67;;;;;;;7.51;79.32;103054.91;5151480;28;20054;-83
2022/01/18 17:49:08;;;;;;;1.30;1.25;;;;;;;7.49;79.28;103049.59;5169708;28;20184;-82